createdAt,value
2023-03-26T00:00:55.636Z,1.77
2023-03-26T00:02:55.713Z,1.21
2023-03-26T00:03:55.662Z,1.48
2023-03-26T00:04:55.646Z,1.33
2023-03-26T00:05:55.898Z,1.47
2023-03-26T00:06:55.661Z,1.23
2023-03-26T00:07:55.635Z,1.51
2023-03-26T00:08:55.676Z,1.41
2023-03-26T00:09:55.642Z,1.62
2023-03-26T00:11:55.653Z,1.53
2023-03-26T00:12:55.659Z,1.73
2023-03-26T00:13:55.639Z,1.48
2023-03-26T00:14:55.676Z,1.42
2023-03-26T00:15:55.869Z,1.36
2023-03-26T00:16:55.707Z,1.43
2023-03-26T00:17:55.722Z,1.38
2023-03-26T00:18:55.697Z,1.34
2023-03-26T00:19:55.678Z,1.58
2023-03-26T00:20:55.728Z,1.21
2023-03-26T00:21:55.686Z,1.64
2023-03-26T00:22:55.660Z,1.45
2023-03-26T00:23:55.705Z,1.78
2023-03-26T00:24:55.693Z,2.00
2023-03-26T00:25:56.099Z,1.65
2023-03-26T00:26:55.715Z,1.74
2023-03-26T00:27:55.690Z,1.60
2023-03-26T00:28:55.711Z,1.49
2023-03-26T00:29:55.707Z,1.68
2023-03-26T00:30:55.720Z,1.49
2023-03-26T00:31:55.700Z,1.69
2023-03-26T00:32:55.782Z,1.47
2023-03-26T00:33:55.870Z,1.16
2023-03-26T00:34:55.723Z,1.54
2023-03-26T00:35:56.083Z,1.81
2023-03-26T00:36:55.722Z,1.29
2023-03-26T00:37:55.737Z,1.98
2023-03-26T00:38:55.745Z,1.79
2023-03-26T00:39:55.703Z,1.50
2023-03-26T00:40:55.737Z,1.69
2023-03-26T00:41:55.762Z,1.37
2023-03-26T00:43:55.738Z,1.81
2023-03-26T00:44:55.752Z,1.70
2023-03-26T00:45:56.025Z,1.57
2023-03-26T00:46:55.768Z,1.77
2023-03-26T00:47:55.824Z,1.56
2023-03-26T00:48:55.767Z,1.47
2023-03-26T00:49:55.765Z,1.45
2023-03-26T00:50:55.797Z,1.52
2023-03-26T00:51:55.733Z,1.63
2023-03-26T00:52:55.927Z,1.60
2023-03-26T00:53:55.748Z,1.66
2023-03-26T00:54:55.790Z,1.32
2023-03-26T00:55:55.914Z,1.41
2023-03-26T00:56:55.891Z,1.86
2023-03-26T00:57:55.798Z,1.56
2023-03-26T00:58:55.834Z,1.66
2023-03-26T00:59:55.755Z,1.34
2023-03-26T01:00:55.793Z,1.61
2023-03-26T01:01:55.784Z,1.69
2023-03-26T01:02:55.874Z,1.53
2023-03-26T01:04:05.199Z,1.69
2023-03-26T01:04:55.804Z,1.54
2023-03-26T01:05:55.976Z,1.79
2023-03-26T01:07:55.814Z,1.89
2023-03-26T01:08:55.853Z,1.81
2023-03-26T01:09:55.812Z,1.73
2023-03-26T01:10:55.827Z,1.84
2023-03-26T01:11:55.842Z,1.60
2023-03-26T01:12:55.826Z,1.66
2023-03-26T01:13:55.823Z,1.99
2023-03-26T01:14:55.803Z,1.59
2023-03-26T01:15:56.017Z,1.59
2023-03-26T01:16:55.875Z,1.57
2023-03-26T01:17:55.878Z,1.56
2023-03-26T01:18:55.863Z,1.93
2023-03-26T01:19:55.840Z,1.84
2023-03-26T01:20:55.844Z,1.92
2023-03-26T01:21:55.872Z,2.19
2023-03-26T01:22:55.844Z,1.49
2023-03-26T01:23:55.853Z,1.60
2023-03-26T01:24:55.869Z,1.80
2023-03-26T01:25:56.117Z,1.43
2023-03-26T01:26:55.844Z,1.90
2023-03-26T01:27:55.863Z,1.95
2023-03-26T01:28:55.829Z,1.85
2023-03-26T01:29:55.905Z,1.49
2023-03-26T01:30:55.849Z,1.89
2023-03-26T01:31:55.829Z,1.83
2023-03-26T01:32:55.970Z,1.30
2023-03-26T01:33:55.856Z,1.25
2023-03-26T01:34:55.911Z,1.57
2023-03-26T01:35:56.045Z,1.53
2023-03-26T01:36:55.895Z,1.38
2023-03-26T01:37:55.876Z,1.77
2023-03-26T01:38:55.883Z,1.40
2023-03-26T01:39:55.892Z,1.43
2023-03-26T01:40:55.896Z,1.18
2023-03-26T01:42:55.927Z,1.78
2023-03-26T01:43:55.911Z,1.37
2023-03-26T01:44:55.864Z,1.49
2023-03-26T01:45:56.146Z,1.28
2023-03-26T01:46:56.007Z,1.44
2023-03-26T01:47:55.913Z,1.11
2023-03-26T01:48:55.894Z,1.47
2023-03-26T01:49:55.915Z,1.56
2023-03-26T01:50:55.928Z,1.40
2023-03-26T01:51:55.895Z,1.49
2023-03-26T01:52:55.921Z,1.58
2023-03-26T01:53:55.893Z,1.43
2023-03-26T01:55:56.280Z,1.29
2023-03-26T01:56:55.956Z,1.50
2023-03-26T01:57:55.928Z,0.95
2023-03-26T01:58:55.950Z,1.39
2023-03-26T01:59:55.952Z,0.97
2023-03-26T02:00:55.996Z,1.26
2023-03-26T02:01:56.082Z,1.44
2023-03-26T02:02:56.042Z,1.44
2023-03-26T02:04:55.946Z,1.25
2023-03-26T02:05:56.132Z,1.26
2023-03-26T02:06:55.947Z,1.19
2023-03-26T02:07:55.926Z,1.87
2023-03-26T02:08:55.967Z,1.57
2023-03-26T02:09:55.983Z,1.50
2023-03-26T02:10:55.994Z,1.73
2023-03-26T02:11:55.946Z,1.52
2023-03-26T02:12:55.945Z,1.59
2023-03-26T02:13:55.936Z,1.40
2023-03-26T02:15:56.189Z,1.19
2023-03-26T02:16:55.992Z,1.42
2023-03-26T02:17:56.011Z,1.51
2023-03-26T02:18:55.987Z,1.27
2023-03-26T02:19:55.996Z,1.71
2023-03-26T02:20:55.969Z,1.36
2023-03-26T02:21:55.965Z,1.77
2023-03-26T02:22:55.985Z,1.67
2023-03-26T02:23:56.007Z,1.77
2023-03-26T02:24:55.980Z,2.21
2023-03-26T02:26:56.014Z,1.38
2023-03-26T02:29:56.013Z,2.19
2023-03-26T02:30:55.989Z,1.94
2023-03-26T02:31:56.032Z,1.83
2023-03-26T02:32:56.068Z,2.07
2023-03-26T02:33:56.016Z,2.02
2023-03-26T02:34:56.004Z,2.35
2023-03-26T02:35:56.294Z,2.46
2023-03-26T02:36:56.032Z,2.15
2023-03-26T02:37:56.019Z,2.14
2023-03-26T02:38:56.038Z,2.40
2023-03-26T02:41:56.051Z,1.98
2023-03-26T02:42:56.030Z,1.87
2023-03-26T02:43:56.012Z,1.74
2023-03-26T02:44:56.050Z,1.89
2023-03-26T02:45:56.336Z,2.18
2023-03-26T02:46:56.080Z,1.73
2023-03-26T02:47:56.087Z,2.46
2023-03-26T02:48:56.073Z,2.05
2023-03-26T02:49:56.054Z,1.72
2023-03-26T02:50:56.037Z,1.62
2023-03-26T02:51:56.094Z,2.00
2023-03-26T02:52:56.042Z,1.89
2023-03-26T02:53:56.050Z,1.84
2023-03-26T02:54:56.088Z,1.70
2023-03-26T02:55:56.178Z,2.14
2023-03-26T02:56:56.109Z,2.14
2023-03-26T02:57:56.057Z,2.36
2023-03-26T02:58:56.044Z,1.98
2023-03-26T02:59:56.113Z,1.87
2023-03-26T03:00:56.102Z,1.66
2023-03-26T03:01:56.118Z,2.02
2023-03-26T03:02:56.153Z,2.05
2023-03-26T03:03:56.073Z,1.70
2023-03-26T03:04:56.099Z,2.06
2023-03-26T03:05:56.365Z,2.04
2023-03-26T03:07:56.089Z,1.83
2023-03-26T03:08:56.073Z,1.90
2023-03-26T03:09:56.130Z,2.28
2023-03-26T03:10:56.091Z,1.93
2023-03-26T03:11:56.100Z,2.39
2023-03-26T03:12:56.091Z,2.41
2023-03-26T03:13:56.121Z,2.08
2023-03-26T03:14:56.106Z,2.06
2023-03-26T03:15:56.311Z,1.81
2023-03-26T03:16:56.149Z,2.06
2023-03-26T03:17:56.148Z,2.36
2023-03-26T03:18:57.810Z,2.28
2023-03-26T03:19:56.140Z,2.32
2023-03-26T03:20:56.148Z,2.03
2023-03-26T03:21:56.162Z,2.12
2023-03-26T03:22:56.293Z,2.11
2023-03-26T03:23:56.125Z,1.84
2023-03-26T03:24:56.116Z,2.16
2023-03-26T03:25:56.460Z,2.07
2023-03-26T03:26:56.855Z,1.91
2023-03-26T03:28:56.134Z,1.79
2023-03-26T03:29:56.152Z,2.15
2023-03-26T03:30:56.200Z,2.49
2023-03-26T03:31:56.163Z,2.27
2023-03-26T03:32:56.232Z,1.92
2023-03-26T03:33:56.164Z,2.02
2023-03-26T03:34:56.174Z,1.67
2023-03-26T03:35:56.499Z,2.06
2023-03-26T03:37:56.167Z,1.48
2023-03-26T03:38:56.164Z,1.62
2023-03-26T03:39:56.161Z,1.83
2023-03-26T03:40:56.170Z,1.79
2023-03-26T03:41:56.180Z,1.75
2023-03-26T03:42:56.193Z,2.14
2023-03-26T03:43:56.189Z,1.94
2023-03-26T03:44:56.209Z,1.81
2023-03-26T03:45:56.483Z,1.95
2023-03-26T03:46:56.176Z,2.22
2023-03-26T03:47:56.271Z,1.69
2023-03-26T03:48:56.200Z,2.40
2023-03-26T03:49:56.179Z,1.78
2023-03-26T03:50:56.244Z,2.13
2023-03-26T03:51:56.193Z,1.77
2023-03-26T03:52:56.198Z,2.07
2023-03-26T03:53:56.207Z,1.89
2023-03-26T03:54:56.198Z,1.96
2023-03-26T03:56:56.315Z,1.87
2023-03-26T03:57:56.219Z,1.73
2023-03-26T03:58:56.231Z,1.69
2023-03-26T04:00:56.268Z,1.87
2023-03-26T04:01:56.233Z,2.11
2023-03-26T04:02:56.427Z,1.82
2023-03-26T04:03:56.368Z,2.09
2023-03-26T04:04:56.231Z,2.06
2023-03-26T04:05:56.448Z,1.33
2023-03-26T04:06:56.230Z,1.51
2023-03-26T04:07:56.220Z,1.65
2023-03-26T04:09:56.276Z,1.53
2023-03-26T04:10:56.275Z,1.83
2023-03-26T04:13:56.265Z,2.13
2023-03-26T04:14:56.248Z,1.81
2023-03-26T04:15:56.778Z,2.21
2023-03-26T04:16:56.249Z,1.66
2023-03-26T04:17:56.316Z,1.88
2023-03-26T04:18:56.307Z,1.94
2023-03-26T04:19:56.248Z,1.91
2023-03-26T04:20:56.299Z,1.95
2023-03-26T04:21:56.288Z,2.36
2023-03-26T04:22:56.254Z,1.97
2023-03-26T04:23:56.308Z,2.26
2023-03-26T04:24:56.294Z,1.93
2023-03-26T04:25:56.511Z,1.84
2023-03-26T04:26:56.283Z,2.01
2023-03-26T04:27:56.282Z,2.16
2023-03-26T04:29:56.264Z,1.60
2023-03-26T04:30:56.288Z,1.49
2023-03-26T04:31:56.315Z,1.95
2023-03-26T04:32:56.327Z,2.17
2023-03-26T04:33:56.330Z,1.79
2023-03-26T04:34:56.318Z,1.43
2023-03-26T04:35:56.580Z,1.94
2023-03-26T04:36:56.323Z,2.16
2023-03-26T04:37:56.358Z,1.83
2023-03-26T04:38:56.291Z,1.77
2023-03-26T04:39:56.310Z,2.04
2023-03-26T04:40:56.322Z,1.70
2023-03-26T04:41:56.350Z,2.04
2023-03-26T04:42:56.321Z,1.70
2023-03-26T04:44:56.349Z,2.36
2023-03-26T04:45:56.523Z,2.11
2023-03-26T04:46:56.384Z,2.01
2023-03-26T04:47:56.383Z,1.97
2023-03-26T04:48:56.356Z,1.48
2023-03-26T04:49:56.324Z,2.35
2023-03-26T04:50:56.347Z,1.63
2023-03-26T04:51:56.364Z,2.08
2023-03-26T04:52:56.348Z,1.81
2023-03-26T04:53:56.357Z,1.68
2023-03-26T04:54:56.378Z,2.12
2023-03-26T04:55:56.599Z,1.80
2023-03-26T04:56:56.428Z,1.74
2023-03-26T04:57:56.384Z,2.01
2023-03-26T04:58:56.365Z,1.77
2023-03-26T04:59:56.373Z,2.15
2023-03-26T05:00:56.408Z,2.05
2023-03-26T05:01:56.404Z,1.82
2023-03-26T05:02:56.486Z,2.14
2023-03-26T05:03:56.387Z,1.65
2023-03-26T05:04:56.399Z,1.63
2023-03-26T05:05:56.573Z,1.78
2023-03-26T05:06:56.390Z,1.90
2023-03-26T05:07:56.410Z,1.66
2023-03-26T05:08:56.379Z,1.80
2023-03-26T05:09:56.406Z,1.71
2023-03-26T05:10:56.570Z,2.01
2023-03-26T05:12:56.398Z,2.10
2023-03-26T05:13:56.386Z,1.84
2023-03-26T05:14:56.370Z,1.54
2023-03-26T05:15:56.406Z,1.77
2023-03-26T05:16:56.408Z,1.84
2023-03-26T05:17:56.410Z,2.02
2023-03-26T05:18:56.428Z,1.84
2023-03-26T05:19:56.468Z,1.88
2023-03-26T05:20:56.800Z,1.58
2023-03-26T05:21:56.435Z,2.08
2023-03-26T05:22:56.428Z,1.93
2023-03-26T05:23:56.435Z,1.72
2023-03-26T05:24:56.463Z,1.88
2023-03-26T05:25:56.450Z,2.10
2023-03-26T05:26:56.458Z,1.71
2023-03-26T05:27:56.487Z,2.00
2023-03-26T05:28:56.428Z,1.72
2023-03-26T05:29:56.441Z,2.03
2023-03-26T05:30:56.709Z,2.22
2023-03-26T05:32:56.634Z,1.78
2023-03-26T05:33:56.496Z,1.88
2023-03-26T05:34:56.429Z,1.78
2023-03-26T05:35:56.459Z,2.02
2023-03-26T05:37:56.502Z,1.77
2023-03-26T05:38:56.459Z,1.90
2023-03-26T05:39:56.459Z,1.68
2023-03-26T05:40:56.611Z,1.51
2023-03-26T05:41:56.503Z,1.71
2023-03-26T05:42:56.506Z,1.61
2023-03-26T05:43:56.482Z,1.69
2023-03-26T05:44:56.485Z,1.67
2023-03-26T05:45:56.512Z,1.69
2023-03-26T05:46:56.506Z,1.76
2023-03-26T05:47:56.544Z,1.59
2023-03-26T05:48:56.488Z,1.65
2023-03-26T05:49:56.523Z,1.60
2023-03-26T05:50:56.944Z,1.34
2023-03-26T05:51:56.507Z,1.41
2023-03-26T05:52:56.479Z,1.37
2023-03-26T05:53:56.512Z,1.56
2023-03-26T05:54:56.523Z,1.80
2023-03-26T05:55:56.557Z,1.47
2023-03-26T05:56:56.577Z,1.54
2023-03-26T05:57:56.498Z,1.68
2023-03-26T05:58:56.489Z,1.51
2023-03-26T05:59:56.518Z,1.89
2023-03-26T06:00:56.576Z,2.34
2023-03-26T06:01:56.514Z,1.48
2023-03-26T06:02:57.219Z,1.39
2023-03-26T06:03:56.850Z,1.30
2023-03-26T06:04:56.583Z,1.22
2023-03-26T06:05:56.547Z,1.38
2023-03-26T06:06:56.506Z,1.70
2023-03-26T06:07:56.509Z,1.14
2023-03-26T06:09:02.195Z,1.29
2023-03-26T06:09:56.536Z,1.83
2023-03-26T06:10:56.808Z,2.24
2023-03-26T06:11:56.525Z,2.15
2023-03-26T06:12:56.534Z,2.00
2023-03-26T06:13:56.604Z,1.93
2023-03-26T06:14:56.536Z,1.60
2023-03-26T06:15:56.604Z,2.06
2023-03-26T06:16:56.548Z,1.52
2023-03-26T06:17:56.600Z,1.54
2023-03-26T06:18:57.737Z,1.35
2023-03-26T06:19:56.540Z,1.52
2023-03-26T06:21:56.662Z,1.32
2023-03-26T06:23:56.781Z,1.49
2023-03-26T06:24:56.613Z,1.80
2023-03-26T06:25:56.576Z,1.78
2023-03-26T06:27:56.638Z,1.61
2023-03-26T06:28:56.619Z,1.64
2023-03-26T06:29:56.718Z,1.77
2023-03-26T06:30:56.960Z,1.39
2023-03-26T06:32:56.765Z,1.63
2023-03-26T06:33:56.727Z,1.65
2023-03-26T06:34:56.647Z,1.62
2023-03-26T06:35:56.749Z,1.50
2023-03-26T06:36:56.655Z,1.49
2023-03-26T06:37:56.635Z,1.74
2023-03-26T06:38:56.745Z,1.43
2023-03-26T06:39:56.756Z,1.74
2023-03-26T06:40:56.899Z,1.39
2023-03-26T06:41:56.705Z,2.22
2023-03-26T06:43:08.557Z,1.33
2023-03-26T06:43:56.751Z,1.60
2023-03-26T06:44:56.741Z,1.53
2023-03-26T06:45:56.742Z,1.52
2023-03-26T06:46:56.816Z,1.72
2023-03-26T06:47:56.791Z,1.49
2023-03-26T06:48:56.742Z,1.43
2023-03-26T06:49:56.735Z,1.37
2023-03-26T06:50:56.741Z,1.22
2023-03-26T06:51:56.733Z,1.67
2023-03-26T06:52:56.767Z,1.44
2023-03-26T06:53:56.721Z,1.28
2023-03-26T06:54:56.715Z,1.36
2023-03-26T06:55:56.835Z,1.62
2023-03-26T06:56:56.814Z,1.03
2023-03-26T06:57:56.770Z,1.22
2023-03-26T06:58:56.755Z,1.32
2023-03-26T06:59:56.827Z,1.59
2023-03-26T07:00:57.016Z,1.43
2023-03-26T07:01:56.761Z,1.44
2023-03-26T07:02:56.800Z,1.39
2023-03-26T07:03:56.863Z,1.31
2023-03-26T07:04:56.790Z,1.40
2023-03-26T07:05:56.851Z,1.41
2023-03-26T07:06:56.750Z,1.60
2023-03-26T07:07:56.755Z,1.32
2023-03-26T07:08:56.822Z,1.76
2023-03-26T07:09:56.855Z,1.51
2023-03-26T07:10:57.058Z,1.48
2023-03-26T07:11:56.777Z,1.52
2023-03-26T07:12:56.854Z,1.88
2023-03-26T07:13:56.862Z,1.38
2023-03-26T07:14:58.402Z,1.39
2023-03-26T07:15:56.859Z,1.36
2023-03-26T07:16:56.794Z,1.25
2023-03-26T07:17:56.873Z,1.51
2023-03-26T07:18:56.738Z,1.65
2023-03-26T07:19:56.796Z,1.59
2023-03-26T07:20:57.062Z,1.55
2023-03-26T07:21:56.817Z,1.46
2023-03-26T07:22:56.840Z,1.50
2023-03-26T07:23:56.840Z,1.14
2023-03-26T07:24:56.808Z,1.55
2023-03-26T07:25:56.888Z,1.39
2023-03-26T07:26:56.840Z,1.42
2023-03-26T07:27:56.896Z,1.36
2023-03-26T07:29:04.037Z,1.47
2023-03-26T07:29:56.844Z,1.57
2023-03-26T07:30:57.177Z,1.57
2023-03-26T07:31:56.871Z,1.52
2023-03-26T07:32:56.923Z,1.53
2023-03-26T07:33:56.891Z,1.46
2023-03-26T07:34:56.856Z,1.35
2023-03-26T07:35:56.858Z,1.61
2023-03-26T07:38:56.889Z,1.35
2023-03-26T07:39:56.920Z,1.19
2023-03-26T07:40:56.984Z,1.55
2023-03-26T07:41:57.106Z,1.19
2023-03-26T07:42:56.909Z,1.39
2023-03-26T07:43:56.904Z,1.50
2023-03-26T07:44:56.839Z,1.22
2023-03-26T07:45:56.943Z,1.52
2023-03-26T07:46:56.827Z,1.59
2023-03-26T07:47:57.006Z,1.46
2023-03-26T07:48:56.945Z,1.28
2023-03-26T07:50:57.100Z,1.24
2023-03-26T07:51:56.987Z,1.02
2023-03-26T07:52:56.797Z,1.76
2023-03-26T07:53:56.789Z,1.26
2023-03-26T07:54:56.830Z,1.50
2023-03-26T07:55:56.811Z,1.67
2023-03-26T07:56:58.861Z,1.42
2023-03-26T07:57:56.850Z,1.78
2023-03-26T07:58:56.831Z,1.91
2023-03-26T07:59:56.878Z,1.72
2023-03-26T08:00:57.084Z,1.75
2023-03-26T08:01:56.950Z,1.56
2023-03-26T08:02:57.200Z,1.72
2023-03-26T08:03:56.888Z,1.43
2023-03-26T08:04:56.962Z,1.73
2023-03-26T08:05:56.813Z,1.26
2023-03-26T08:06:56.832Z,1.72
2023-03-26T08:07:56.846Z,1.50
2023-03-26T08:08:56.847Z,1.56
2023-03-26T08:09:56.868Z,1.72
2023-03-26T08:10:57.169Z,1.30
2023-03-26T08:11:56.825Z,1.67
2023-03-26T08:12:56.851Z,1.51
2023-03-26T08:13:57.553Z,1.59
2023-03-26T08:14:56.880Z,1.86
2023-03-26T08:15:56.889Z,1.58
2023-03-26T08:16:56.889Z,1.48
2023-03-26T08:17:56.886Z,1.58
2023-03-26T08:18:56.848Z,1.70
2023-03-26T08:19:56.890Z,1.65
2023-03-26T08:20:57.082Z,1.56
2023-03-26T08:21:56.850Z,1.79
2023-03-26T08:22:56.896Z,1.75
2023-03-26T08:23:56.886Z,2.08
2023-03-26T08:24:56.843Z,1.59
2023-03-26T08:25:56.879Z,1.45
2023-03-26T08:26:56.869Z,1.83
2023-03-26T08:27:56.916Z,1.15
2023-03-26T08:28:56.872Z,1.59
2023-03-26T08:29:56.885Z,1.75
2023-03-26T08:30:57.315Z,1.83
2023-03-26T08:31:56.896Z,1.69
2023-03-26T08:32:56.937Z,1.46
2023-03-26T08:33:56.898Z,1.64
2023-03-26T08:34:56.938Z,1.85
2023-03-26T08:35:56.925Z,1.41
2023-03-26T08:36:56.923Z,1.67
2023-03-26T08:37:56.876Z,2.24
2023-03-26T08:38:56.893Z,1.80
2023-03-26T08:39:56.919Z,1.95
2023-03-26T08:41:56.896Z,1.87
2023-03-26T08:42:56.905Z,1.75
2023-03-26T08:43:56.908Z,1.94
2023-03-26T08:44:56.902Z,1.60
2023-03-26T08:45:56.941Z,1.83
2023-03-26T08:46:56.936Z,2.36
2023-03-26T08:47:56.980Z,1.67
2023-03-26T08:48:56.889Z,1.98
2023-03-26T08:49:56.942Z,1.85
2023-03-26T08:50:57.286Z,1.88
2023-03-26T08:51:56.909Z,1.92
2023-03-26T08:52:56.954Z,1.59
2023-03-26T08:53:56.941Z,1.61
2023-03-26T08:54:57.476Z,2.13
2023-03-26T08:55:56.933Z,1.84
2023-03-26T08:56:56.973Z,1.64
2023-03-26T08:57:56.938Z,2.13
2023-03-26T08:58:56.986Z,1.86
2023-03-26T08:59:56.938Z,2.26
2023-03-26T09:00:57.214Z,1.98
2023-03-26T09:01:57.006Z,1.95
2023-03-26T09:02:57.045Z,1.53
2023-03-26T09:03:57.001Z,2.17
2023-03-26T09:04:56.934Z,2.00
2023-03-26T09:05:56.954Z,2.07
2023-03-26T09:06:56.955Z,2.08
2023-03-26T09:07:56.949Z,2.31
2023-03-26T09:08:57.023Z,2.65
2023-03-26T09:09:56.976Z,2.21
2023-03-26T09:10:57.198Z,2.25
2023-03-26T09:11:57.093Z,2.69
2023-03-26T09:12:56.989Z,1.75
2023-03-26T09:13:56.973Z,2.18
2023-03-26T09:14:56.962Z,2.72
2023-03-26T09:15:57.037Z,2.76
2023-03-26T09:16:57.044Z,2.83
2023-03-26T09:17:58.164Z,2.21
2023-03-26T09:18:56.991Z,2.21
2023-03-26T09:19:57.020Z,2.46
2023-03-26T09:20:57.334Z,3.71
2023-03-26T09:21:57.002Z,3.20
2023-03-26T09:22:57.012Z,3.53
2023-03-26T09:23:56.989Z,2.76
2023-03-26T09:24:57.010Z,2.54
2023-03-26T09:25:57.025Z,1.75
2023-03-26T09:26:57.024Z,1.95
2023-03-26T09:27:57.019Z,1.65
2023-03-26T09:28:57.038Z,2.03
2023-03-26T09:29:57.007Z,2.00
2023-03-26T09:30:57.230Z,1.79
2023-03-26T09:31:57.194Z,2.21
2023-03-26T09:32:57.069Z,1.62
2023-03-26T09:34:57.084Z,2.01
2023-03-26T09:35:57.120Z,2.47
2023-03-26T09:36:57.056Z,2.10
2023-03-26T09:37:58.181Z,2.34
2023-03-26T09:38:57.057Z,2.01
2023-03-26T09:39:57.122Z,2.12
2023-03-26T09:40:57.307Z,1.97
2023-03-26T09:41:57.120Z,1.79
2023-03-26T09:42:57.056Z,1.57
2023-03-26T09:43:57.052Z,1.51
2023-03-26T09:44:57.129Z,1.65
2023-03-26T09:45:57.135Z,1.61
2023-03-26T09:46:57.054Z,1.56
2023-03-26T09:47:57.166Z,1.91
2023-03-26T09:48:57.121Z,1.94
2023-03-26T09:50:57.409Z,1.74
2023-03-26T09:51:57.140Z,1.69
2023-03-26T09:52:57.059Z,1.42
2023-03-26T09:53:57.067Z,1.91
2023-03-26T09:54:57.075Z,1.82
2023-03-26T09:55:57.194Z,1.91
2023-03-26T09:56:57.176Z,1.52
2023-03-26T09:57:57.142Z,1.44
2023-03-26T09:58:57.099Z,1.29
2023-03-26T09:59:57.159Z,1.72
2023-03-26T10:01:57.097Z,1.32
2023-03-26T10:02:57.150Z,1.34
2023-03-26T10:03:57.103Z,1.89
2023-03-26T10:04:57.124Z,1.81
2023-03-26T10:05:57.106Z,1.71
2023-03-26T10:06:57.118Z,1.39
2023-03-26T10:07:57.153Z,1.33
2023-03-26T10:08:57.167Z,2.34
2023-03-26T10:09:57.173Z,1.83
2023-03-26T10:10:57.316Z,2.33
2023-03-26T10:11:57.213Z,2.07
2023-03-26T10:13:08.127Z,1.94
2023-03-26T10:13:57.116Z,2.41
2023-03-26T10:14:57.115Z,3.44
2023-03-26T10:15:57.178Z,1.72
2023-03-26T10:16:57.183Z,1.76
2023-03-26T10:17:57.255Z,1.76
2023-03-26T10:18:57.180Z,1.25
2023-03-26T10:19:57.139Z,1.42
2023-03-26T10:20:57.213Z,1.43
2023-03-26T10:21:57.187Z,1.20
2023-03-26T10:22:57.146Z,1.26
2023-03-26T10:23:57.153Z,0.92
2023-03-26T10:24:57.181Z,0.77
2023-03-26T10:25:57.207Z,0.62
2023-03-26T10:27:57.166Z,1.09
2023-03-26T10:28:57.168Z,1.20
2023-03-26T10:30:57.562Z,1.63
2023-03-26T10:31:57.210Z,1.36
2023-03-26T10:32:57.236Z,2.11
2023-03-26T10:33:57.230Z,1.68
2023-03-26T10:34:57.157Z,1.19
2023-03-26T10:36:57.198Z,1.21
2023-03-26T10:37:57.213Z,1.25
2023-03-26T10:38:57.171Z,1.43
2023-03-26T10:40:57.349Z,1.18
2023-03-26T10:41:57.194Z,0.78
2023-03-26T10:42:57.208Z,0.96
2023-03-26T10:44:07.354Z,1.70
2023-03-26T10:44:57.209Z,1.13
2023-03-26T10:45:57.282Z,1.27
2023-03-26T10:46:57.188Z,0.96
2023-03-26T10:47:57.224Z,1.27
2023-03-26T10:48:57.248Z,1.04
2023-03-26T10:49:57.278Z,1.35
2023-03-26T10:50:57.434Z,1.12
2023-03-26T10:51:57.276Z,1.27
2023-03-26T10:52:57.263Z,1.27
2023-03-26T10:53:57.310Z,1.32
2023-03-26T10:54:57.248Z,1.34
2023-03-26T10:55:57.237Z,1.55
2023-03-26T10:56:57.232Z,1.09
2023-03-26T10:57:57.229Z,2.96
2023-03-26T10:58:57.313Z,2.61
2023-03-26T11:01:57.419Z,1.84
2023-03-26T11:02:57.297Z,1.32
2023-03-26T11:03:57.232Z,1.42
2023-03-26T11:05:57.275Z,1.88
2023-03-26T11:06:57.308Z,1.57
2023-03-26T11:07:57.311Z,1.56
2023-03-26T11:08:57.282Z,1.51
2023-03-26T11:09:57.270Z,1.33
2023-03-26T11:10:57.473Z,1.29
2023-03-26T11:12:57.298Z,1.56
2023-03-26T11:13:57.295Z,1.74
2023-03-26T11:14:57.323Z,1.97
2023-03-26T11:15:57.320Z,1.57
2023-03-26T11:16:57.299Z,1.57
2023-03-26T11:17:57.319Z,1.53
2023-03-26T11:19:57.355Z,1.54
2023-03-26T11:21:18.001Z,1.39
2023-03-26T11:21:57.312Z,1.18
2023-03-26T11:22:57.310Z,1.38
2023-03-26T11:24:04.747Z,1.49
2023-03-26T11:24:57.348Z,1.48
2023-03-26T11:25:57.345Z,1.51
2023-03-26T11:26:57.340Z,1.71
2023-03-26T11:27:57.319Z,1.62
2023-03-26T11:29:04.105Z,1.25
2023-03-26T11:29:57.387Z,1.23
2023-03-26T11:30:57.510Z,1.34
2023-03-26T11:31:57.339Z,1.09
2023-03-26T11:32:57.388Z,1.00
2023-03-26T11:33:57.346Z,1.31
2023-03-26T11:34:57.361Z,1.09
2023-03-26T11:35:57.390Z,1.35
2023-03-26T11:36:57.343Z,1.27
2023-03-26T11:37:57.363Z,1.39
2023-03-26T11:38:57.391Z,2.29
2023-03-26T11:40:57.807Z,2.95
2023-03-26T11:41:57.347Z,1.56
2023-03-26T11:43:57.405Z,1.52
2023-03-26T11:44:57.383Z,1.39
2023-03-26T11:45:57.402Z,1.13
2023-03-26T11:46:57.456Z,1.15
2023-03-26T11:47:57.462Z,1.36
2023-03-26T11:48:57.410Z,1.02
2023-03-26T11:50:57.776Z,1.31
2023-03-26T11:51:57.369Z,1.42
2023-03-26T11:52:57.386Z,1.58
2023-03-26T11:53:57.434Z,1.42
2023-03-26T11:54:57.423Z,1.29
2023-03-26T11:55:57.443Z,1.33
2023-03-26T11:57:05.995Z,1.57
2023-03-26T11:57:57.373Z,1.21
2023-03-26T11:58:57.413Z,1.17
2023-03-26T11:59:58.130Z,1.14
2023-03-26T12:00:57.638Z,1.10
2023-03-26T12:01:57.450Z,1.15
2023-03-26T12:02:57.411Z,1.28
2023-03-26T12:03:57.478Z,1.13
2023-03-26T12:04:57.545Z,1.11
2023-03-26T12:05:57.422Z,1.15
2023-03-26T12:06:57.447Z,1.01
2023-03-26T12:07:57.937Z,1.51
2023-03-26T12:08:57.481Z,1.14
2023-03-26T12:09:57.439Z,1.72
2023-03-26T12:11:57.453Z,1.07
2023-03-26T12:12:57.466Z,1.38
2023-03-26T12:13:57.481Z,1.34
2023-03-26T12:14:57.452Z,1.32
2023-03-26T12:15:57.479Z,1.32
2023-03-26T12:16:57.558Z,1.29
2023-03-26T12:17:57.436Z,1.27
2023-03-26T12:18:57.458Z,1.16
2023-03-26T12:19:57.466Z,1.39
2023-03-26T12:20:57.438Z,1.45
2023-03-26T12:21:57.470Z,1.25
2023-03-26T12:22:57.446Z,1.06
2023-03-26T12:24:57.454Z,0.99
2023-03-26T12:25:57.498Z,1.28
2023-03-26T12:26:57.496Z,1.45
2023-03-26T12:27:57.465Z,1.57
2023-03-26T12:28:57.464Z,1.19
2023-03-26T12:29:57.477Z,1.14
2023-03-26T12:30:57.731Z,1.11
2023-03-26T12:31:57.639Z,1.05
2023-03-26T12:32:57.489Z,1.51
2023-03-26T12:33:59.025Z,1.79
2023-03-26T12:34:57.461Z,1.91
2023-03-26T12:35:57.469Z,1.49
2023-03-26T12:36:57.529Z,2.44
2023-03-26T12:37:57.525Z,1.81
2023-03-26T12:39:16.381Z,1.53
2023-03-26T12:40:07.089Z,1.27
2023-03-26T12:40:57.466Z,0.96
2023-03-26T12:43:19.755Z,1.07
2023-03-26T12:44:46.609Z,1.04
2023-03-26T12:44:52.999Z,1.06
2023-03-26T12:44:59.570Z,0.87
2023-03-26T12:47:45.993Z,0.98
2023-03-26T12:47:57.075Z,1.01
2023-03-26T12:48:03.573Z,1.03
2023-03-26T12:48:57.591Z,0.85
2023-03-26T12:49:57.520Z,1.03
2023-03-26T12:50:58.028Z,0.84
2023-03-26T12:51:57.579Z,0.76
2023-03-26T12:52:57.541Z,1.14
2023-03-26T12:53:57.542Z,1.04
2023-03-26T12:54:57.572Z,0.86
2023-03-26T12:55:57.565Z,1.10
2023-03-26T12:57:11.963Z,1.04
2023-03-26T12:57:57.562Z,0.79
2023-03-26T13:00:57.836Z,0.64
2023-03-26T13:01:57.604Z,1.08
2023-03-26T13:02:57.650Z,0.80
2023-03-26T13:03:57.567Z,0.71
2023-03-26T13:05:05.530Z,1.00
2023-03-26T13:05:57.572Z,0.81
2023-03-26T13:07:00.556Z,0.90
2023-03-26T13:07:57.580Z,0.97
2023-03-26T13:08:57.530Z,0.64
2023-03-26T13:09:57.536Z,0.79
2023-03-26T13:10:57.780Z,0.79
2023-03-26T13:11:57.593Z,0.63
2023-03-26T13:12:57.599Z,0.92
2023-03-26T13:13:57.585Z,0.78
2023-03-26T13:14:57.638Z,0.63
2023-03-26T13:15:57.572Z,0.99
2023-03-26T13:16:57.640Z,0.60
2023-03-26T13:18:57.587Z,0.95
2023-03-26T13:19:57.579Z,0.90
2023-03-26T13:20:57.702Z,1.15
2023-03-26T13:21:57.593Z,0.84
2023-03-26T13:22:57.607Z,1.17
2023-03-26T13:23:57.605Z,0.77
2023-03-26T13:24:57.661Z,0.80
2023-03-26T13:25:57.636Z,0.75
2023-03-26T13:26:57.600Z,0.87
2023-03-26T13:27:57.598Z,0.93
2023-03-26T13:28:57.679Z,1.07
2023-03-26T13:29:57.704Z,1.04
2023-03-26T13:30:57.943Z,1.33
2023-03-26T13:31:57.672Z,1.25
2023-03-26T13:32:57.724Z,0.87
2023-03-26T13:33:57.619Z,0.86
2023-03-26T13:34:57.682Z,1.00
2023-03-26T13:36:10.224Z,1.02
2023-03-26T13:36:57.643Z,0.85
2023-03-26T13:37:57.637Z,0.98
2023-03-26T13:38:59.150Z,0.86
2023-03-26T13:39:57.662Z,0.92
2023-03-26T13:40:57.846Z,0.57
2023-03-26T13:41:57.638Z,1.00
2023-03-26T13:42:57.673Z,0.89
2023-03-26T13:43:57.657Z,0.78
2023-03-26T13:45:05.072Z,0.95
2023-03-26T13:45:57.710Z,0.68
2023-03-26T13:46:57.696Z,0.61
2023-03-26T13:47:57.731Z,0.83
2023-03-26T13:48:57.674Z,1.13
2023-03-26T13:49:57.691Z,0.89
2023-03-26T13:50:57.655Z,0.69
2023-03-26T13:51:57.661Z,4.72
2023-03-26T13:52:57.693Z,1.26
2023-03-26T13:53:57.682Z,1.10
2023-03-26T13:54:57.698Z,0.81
2023-03-26T13:56:57.724Z,0.84
2023-03-26T13:57:57.728Z,0.69
2023-03-26T13:58:57.701Z,0.70
2023-03-26T13:59:57.796Z,0.68
2023-03-26T14:00:58.069Z,0.59
2023-03-26T14:01:57.731Z,0.71
2023-03-26T14:02:57.738Z,0.54
2023-03-26T14:03:57.770Z,0.77
2023-03-26T14:05:57.768Z,0.62
2023-03-26T14:06:57.834Z,0.71
2023-03-26T14:07:57.717Z,0.59
2023-03-26T14:08:57.719Z,0.63
2023-03-26T14:09:57.851Z,1.17
2023-03-26T14:10:57.783Z,1.64
2023-03-26T14:11:57.738Z,2.33
2023-03-26T14:12:57.716Z,1.48
2023-03-26T14:13:57.709Z,0.99
2023-03-26T14:14:57.717Z,0.70